VUELOS DE BAJO NIVEL DESDE SUPERFICIE HASTA 24,000 PIES.

 
VALIDO DESDE 191200Z...………………HASTA 200000Z

 

SANTO DOMINGO FIR...PORT-AU-PRINCE FIR N 18N...SCT015 SCT080. OCNL VIS 4SM BR INLAND TIL 13Z. AFT 18Z LYRS OCNL BKN TOP FL180. WDLY SCT TSRA MNLY OVR ISLAND.OTLK...VFR TSRA.

S 18N...SCT020 SCT-BKN100 TOP LYRD ABV FL240. WDLY SCT SHRA.ISOL TSRA. OTLK...VFR SHRA TSRA.

 

 

5,000 FT.

10,000 FT.

18,000 FT.

24,000 FT.

MDSD

1110KT+19ºC

1315KT+08ºC

1315KT-08ºC

0205KT-18ºC

MTPP

1110KT+18ºC

1315KT+08ºC

1315KT-08ºC

0510KT-19ºC

TJSJ

1215KT+18ºC

1310KT+09ºC

1315KT-09ºC

1415KT-20ºC

 

 

 

 

 

                                                                                                                                                                                         

TAF MDPP 191000Z 1912/2012 00000KT 9999 FEW016 BECMG 1913/1915 09010KT=

TAF MDST 191000Z 1912/2012 12005KT 9999 SCT016 SCT300 BECMG 1914/1916 13016KT=

TAF MDPC 191000Z 1912/2012 11006KT 9999 FEW018 PROB30 1920/2002 8000 -SH SCT018 BKN070 BECMG 2003/2005 00000KT=

TAF MDBH 191000Z 1912/2012 13016KT 9999 FEW018CB FEW020 BKN100 PROB30 1913/1917 8000 -RA FEW016CB SCT018 BKN080=

TAF MDJB 191000Z 1912/2012 12008KT 9999 BKN018 PROB30 1912/1917 8000 –RA FEW014CB BKN016 BECMG 1915/1917 18010KT=

TAF MDSD 191000Z 1912/2012 14012KT 9999 FEW018CB SCT020 SCT300 PROB30 1914/1919  8000 -TSRA FEW016CB BKN018 BKN070 SCT300=

TAF MDLR 191000Z 1912/2012 00000KT 9999 SCT018 SCT300 BECMG 1913/1915 12012KT PROB30 1915/1921 7000 –TSRA FEW016CB BKN016 SCT070=

TAF MDCY 191000Z 1912/2012 19008KT 9999 FEW016 SCT300 PROB30 1913/1918 7000 –RA BKN016 SCT070 BKN300 BECMG 1914/1916 09012KT=

KMIA 190905Z 1909/2006 13008KT P6SM SCT020 BKN120 TEMPO 1912/1914 4SM SHRA BKN020 FM191400 14016G25KT P6SM VCSH SCT025 BKN050 BKN250 FM200000 13014KT P6SM SCT020 SCT050 BKN250

KJFK 190839Z 1909/2012 19013KT P6SM FEW035 SCT060 FM191200 20014G21KT P6SM SCT020 SCT035 FM191500 19018G25KT P6SM SCT025 SCT040 SCT250 FM191800 19020G26KT P6SM VCSH SCT040 SCT120 FM192000 19018G25KT P6SM VCTS SCT040CB BKN120 FM192200 19019G25KT 2SM SHRA BR VCTS BKN035CB PROB30 1922/2002 1SM +TSRA BR OVC025CB FM200200 19016G24KT 2SM SHRA BR VCTS OVC015CB PROB30 2002/2008 TSRA BR OVC015CB 
FM200800 24010KT 4SM BR SCT015 SCT100

TJSJ 190959Z 1910/2006 11008KT P6SM VCSH SCT025 SCT045 SCT090 TEMPO 1910/1911 -TSRA BKN030CB FM191330 08010KT P6SM VCSH SCT030 SCT050 BKN100 FM191700 09012KT P6SM VCTS SCT025CB SCT050 BKN070 FM192330 11009KT P6SM VCSH SCT03

MUHA 190500Z 1906/2006 10006KT 9000 SCT020 BKN150 BECMG 1912/1913 14010KT TEMPO 1914/1920 5000 SHRA

TAF MUGM 1907/2007 34006KT 9999 SCT015 SCT150 OVC250 QNH2987INS BECMG 1911/1913 13008KT 9999 SCT030 SCT150 BKN250 QNH2986INS BECMG 1916/1918 14012KT 9999 SCT025 SCT100 QNH2988INS BECMG 1920/1922 VRB06KT 9999 SCT100 QNH2986INS BECMG 2002/2004 34007KT 9999 FEW050 SCT250 QNH2998INS T27/1909Z T30/1918Z FN00182

TAF TNCC 190900Z 1912/2012 09010KT 9999 SCT020 PROB40 TEMPO 1912/1916 8000 SHRA BKN010MKJP 190515Z 1906/2006 12015KT 9999 FEW022 SCT032 BECMG 1914/1916 13025KT SCT018ECMG 2000/2002 12015KT FEW022    

PREPARADO POR: HATY MOTA. 19 DE JUNIO DEL 2017-